Time;durP1;ratioP1;P1;durP2;ratioP2;P2;SDS_P1;SDS_P2;PMS_P1;PMS_P2;Temp;Humidity;BMP_temperature;BMP_pressure;BME280_temperature;BME280_humidity;BME280_pressure;Samples;Min_cycle;Max_cycle;Signal;HPM_P1;HPM_P2
2022/04/29 00:01:57;;;;;;;;;18.67;15.67;;;;;18.64;39.30;102359.59;5099165;27;45435;-81
2022/04/29 00:04:23;;;;;;;;;19.00;16.33;;;;;18.61;39.32;102350.78;5099076;27;45341;-81
2022/04/29 00:06:49;;;;;;;;;25.00;19.33;;;;;18.50;39.41;102335.13;5098757;27;46181;-81
2022/04/29 00:09:14;;;;;;;;;24.67;19.33;;;;;18.67;38.99;102370.22;5098580;27;45435;-81
2022/04/29 00:11:40;;;;;;;;;19.67;16.00;;;;;18.52;39.30;102353.00;5098441;27;45322;-81
2022/04/29 00:14:05;;;;;;;;;20.33;18.00;;;;;18.63;39.61;102359.66;5099178;27;45369;-81
2022/04/29 00:16:30;;;;;;;;;19.33;18.00;;;;;18.28;39.86;102309.22;5098407;27;45589;-81
2022/04/29 00:18:55;;;;;;;;;19.33;19.00;;;;;18.56;39.57;102353.69;5098851;27;45247;-80
2022/04/29 00:21:21;;;;;;;;;22.00;19.00;;;;;18.11;39.76;102276.84;5098637;27;45280;-81
2022/04/29 00:23:46;;;;;;;;;25.33;22.33;;;;;18.40;39.84;102336.53;5098357;27;46180;-81
2022/04/29 00:26:11;;;;;;;;;22.67;19.00;;;;;18.42;39.75;102346.31;5097761;27;51632;-81
2022/04/29 00:28:37;;;;;;;;;18.00;15.67;;;;;18.22;39.70;102312.25;5098527;27;45620;-81
2022/04/29 00:31:02;;;;;;;;;21.67;17.67;;;;;18.16;40.08;102304.44;5080035;27;45486;-80
2022/04/29 00:33:27;;;;;;;;;19.00;18.33;;;;;18.39;39.84;102342.91;5098535;27;45298;-81
2022/04/29 00:35:53;;;;;;;;;24.67;23.33;;;;;18.31;40.12;102336.06;5098180;27;45905;-80
2022/04/29 00:38:18;;;;;;;;;20.67;19.00;;;;;18.34;40.27;102346.72;5098146;27;45317;-81
2022/04/29 00:40:44;;;;;;;;;22.33;20.33;;;;;18.27;40.35;102326.38;5098158;27;45704;-81
2022/04/29 00:43:11;;;;;;;;;20.33;18.67;;;;;18.30;40.23;102339.72;5098424;27;45472;-81
2022/04/29 00:45:36;;;;;;;;;17.67;16.33;;;;;18.12;40.33;102313.66;5098072;27;45538;-81
2022/04/29 00:48:02;;;;;;;;;19.33;14.00;;;;;18.27;40.28;102344.41;5098145;27;45522;-80
2022/04/29 00:50:29;;;;;;;;;22.00;20.00;;;;;18.22;40.36;102331.16;5079790;27;45494;-81
2022/04/29 00:52:56;;;;;;;;;21.67;20.33;;;;;18.20;40.25;102335.75;5098204;27;45369;-80
2022/04/29 00:55:22;;;;;;;;;21.33;20.33;;;;;17.86;40.85;102280.78;5097254;27;45385;-80
2022/04/29 00:57:52;;;;;;;;;21.33;20.00;;;;;18.14;40.60;102325.25;5097627;27;45290;-81
2022/04/29 01:00:18;;;;;;;;;21.67;20.67;;;;;18.11;40.54;102328.09;5079549;27;45494;-81
2022/04/29 01:02:50;;;;;;;;;21.67;20.00;;;;;17.85;40.14;102279.03;5098238;27;45286;-81
2022/04/29 01:05:17;;;;;;;;;23.67;21.33;;;;;18.07;40.71;102319.28;5097741;27;46087;-81
2022/04/29 01:07:44;;;;;;;;;18.00;18.00;;;;;18.06;40.39;102317.53;5097709;27;45350;-81
2022/04/29 01:10:12;;;;;;;;;25.67;20.33;;;;;17.88;40.23;102286.94;5097377;27;45370;-80
2022/04/29 01:12:40;;;;;;;;;23.00;19.33;;;;;17.40;41.02;102210.22;5098257;27;45569;-81
2022/04/29 01:15:09;;;;;;;;;22.67;20.00;;;;;17.76;40.60;102270.47;5097496;27;46323;-80
2022/04/29 01:17:35;;;;;;;;;24.33;21.67;;;;;17.80;41.00;102275.66;5097768;27;45300;-81
2022/04/29 01:20:06;;;;;;;;;20.67;20.00;;;;;17.95;40.68;102297.44;5097927;27;45571;-80
2022/04/29 01:22:32;;;;;;;;;23.00;21.00;;;;;17.93;41.01;102298.41;5097743;27;45437;-80
2022/04/29 01:24:58;;;;;;;;;23.67;16.67;;;;;17.90;40.34;102295.84;5097203;27;45475;-80
2022/04/29 01:27:24;;;;;;;;;24.00;19.67;;;;;17.39;41.18;102218.34;5097454;27;45412;-80
2022/04/29 01:29:58;;;;;;;;;24.00;22.33;;;;;17.57;40.87;102260.59;5097433;27;45298;-81
2022/04/29 01:32:25;;;;;;;;;22.33;18.00;;;;;17.83;40.78;102305.19;5097630;27;45762;-80
2022/04/29 01:34:50;;;;;;;;;22.67;20.67;;;;;17.59;41.02;102265.94;5097414;27;45650;-80
2022/04/29 01:37:16;;;;;;;;;20.33;19.67;;;;;17.75;40.86;102295.69;5096908;27;51708;-80
2022/04/29 01:39:41;;;;;;;;;22.67;19.67;;;;;17.71;40.38;102301.25;5097235;27;45407;-81
2022/04/29 01:42:06;;;;;;;;;19.67;18.33;;;;;17.42;40.78;102250.53;5079399;27;45517;-80
2022/04/29 01:44:32;;;;;;;;;21.00;18.67;;;;;17.22;41.33;102225.44;5098132;27;45379;-81
2022/04/29 01:46:57;;;;;;;;;20.67;18.00;;;;;17.40;41.09;102256.03;5101027;27;45455;-80
2022/04/29 01:49:22;;;;;;;;;20.00;18.00;;;;;17.48;41.56;102263.75;5101208;27;45473;-81
2022/04/29 01:51:48;;;;;;;;;20.67;18.67;;;;;17.24;41.32;102237.03;5101104;27;45539;-81
2022/04/29 01:54:14;;;;;;;;;26.67;21.00;;;;;17.23;41.20;102245.16;5100235;27;45566;-80
2022/04/29 01:56:40;;;;;;;;;19.00;12.67;;;;;17.32;41.10;102262.72;5100859;27;45375;-80
2022/04/29 01:59:06;;;;;;;;;18.50;18.50;;;;;17.43;41.38;102285.53;5101118;27;45563;-80
2022/04/29 02:01:32;;;;;;;;;24.00;21.00;;;;;17.57;41.08;102325.31;5101280;27;45495;-81
2022/04/29 02:04:01;;;;;;;;;21.00;17.67;;;;;17.55;41.46;102316.41;5100633;27;46178;-81
2022/04/29 02:06:27;;;;;;;;;21.67;21.00;;;;;17.52;41.74;102317.44;5082341;27;45277;-80
2022/04/29 02:08:53;;;;;;;;;22.67;18.33;;;;;17.18;41.46;102255.28;5100449;27;45811;-80
2022/04/29 02:11:19;;;;;;;;;16.33;14.67;;;;;17.19;41.66;102252.53;5100919;27;45324;-81
2022/04/29 02:13:45;;;;;;;;;20.67;20.67;;;;;17.47;41.81;102302.44;5100582;27;45341;-80
2022/04/29 02:16:11;;;;;;;;;23.67;19.67;;;;;17.39;41.90;102300.09;5100333;27;45349;-81
2022/04/29 02:18:36;;;;;;;;;26.33;22.33;;;;;17.11;41.58;102252.00;5100766;27;45342;-80
2022/04/29 02:21:02;;;;;;;;;21.67;19.00;;;;;16.97;41.69;102231.09;5100406;27;45240;-80
2022/04/29 02:23:27;;;;;;;;;21.67;19.00;;;;;17.18;41.97;102271.47;5100179;27;45841;-81
2022/04/29 02:25:52;;;;;;;;;25.00;20.33;;;;;17.42;41.55;102329.63;5081766;27;53021;-81
2022/04/29 02:28:18;;;;;;;;;25.00;22.00;;;;;17.41;41.82;102324.28;5100355;27;45313;-80
2022/04/29 02:30:43;;;;;;;;;22.33;19.33;;;;;17.35;41.91;102321.88;5100735;27;45301;-80
2022/04/29 02:33:08;;;;;;;;;23.33;22.33;;;;;17.40;41.92;102326.13;5099761;27;46486;-80
2022/04/29 02:35:34;;;;;;;;;24.00;19.67;;;;;16.96;41.75;102244.66;5100231;27;45646;-80
2022/04/29 02:37:59;;;;;;;;;19.00;18.33;;;;;17.41;41.30;102317.06;5100125;27;45365;-80
2022/04/29 02:40:24;;;;;;;;;24.00;20.00;;;;;16.70;41.84;102192.84;5100403;27;45403;-80
2022/04/29 02:42:50;;;;;;;;;25.33;20.33;;;;;17.15;41.40;102271.63;5100238;27;45495;-80
2022/04/29 02:45:15;;;;;;;;;25.00;22.00;;;;;17.42;41.52;102318.84;5099778;27;45249;-80
2022/04/29 02:47:41;;;;;;;;;33.33;24.33;;;;;17.02;41.21;102247.06;5100316;27;45361;-80
2022/04/29 02:50:07;;;;;;;;;26.33;21.67;;;;;17.43;41.36;102317.00;5081901;27;45520;-80
2022/04/29 02:52:32;;;;;;;;;24.67;21.67;;;;;17.26;41.09;102291.72;5099543;27;45385;-81
2022/04/29 02:54:57;;;;;;;;;21.67;20.33;;;;;17.31;41.39;102294.19;5099952;27;45279;-82
2022/04/29 02:57:23;;;;;;;;;21.33;20.00;;;;;17.41;41.67;102317.06;5099357;27;51673;-82
2022/04/29 02:59:48;;;;;;;;;24.00;23.67;;;;;17.34;41.25;102301.25;5100319;27;45378;-80
2022/04/29 03:02:13;;;;;;;;;28.33;23.00;;;;;17.44;41.30;102318.75;5099494;27;46077;-82
2022/04/29 03:04:38;;;;;;;;;22.33;19.33;;;;;17.43;41.35;102323.25;5099486;27;51776;-83
2022/04/29 03:07:04;;;;;;;;;22.33;21.00;;;;;17.42;40.89;102315.25;5099191;27;45416;-83
2022/04/29 03:09:31;;;;;;;;;26.67;21.00;;;;;16.91;41.17;102231.41;5100021;27;45402;-82
2022/04/29 03:11:56;;;;;;;;;22.33;19.67;;;;;17.12;41.03;102272.63;5099681;27;45442;-83
2022/04/29 03:14:22;;;;;;;;;23.00;19.00;;;;;17.40;41.57;102318.03;5099391;27;45423;-83
2022/04/29 03:16:47;;;;;;;;;23.00;22.00;;;;;17.07;41.01;102259.38;5099878;27;45380;-83
2022/04/29 03:19:13;;;;;;;;;22.00;19.33;;;;;17.29;41.23;102291.56;5099522;27;45410;-82
2022/04/29 03:21:38;;;;;;;;;19.67;18.33;;;;;16.79;41.22;102211.31;5099256;27;45536;-82
2022/04/29 03:24:04;;;;;;;;;29.33;25.00;;;;;17.32;41.01;102295.06;5099774;27;45403;-82
2022/04/29 03:26:30;;;;;;;;;22.67;19.00;;;;;17.36;41.34;102299.38;5099522;27;45373;-82
2022/04/29 03:28:56;;;;;;;;;17.67;16.67;;;;;17.35;41.02;102303.00;5099935;27;45283;-83
2022/04/29 03:31:21;;;;;;;;;22.67;22.33;;;;;17.15;41.15;102263.53;5099091;27;45314;-83
2022/04/29 03:33:47;;;;;;;;;25.67;17.67;;;;;16.92;41.32;102226.91;5099161;27;45348;-83
2022/04/29 03:36:14;;;;;;;;;20.67;18.33;;;;;17.16;41.13;102266.16;5098836;27;45352;-82
2022/04/29 03:38:40;;;;;;;;;26.67;23.00;;;;;17.34;41.30;102296.75;5099919;27;45249;-82
2022/04/29 03:41:06;;;;;;;;;23.33;21.33;;;;;16.93;41.19;102216.06;5098852;27;46159;-82
2022/04/29 03:43:32;;;;;;;;;20.00;18.67;;;;;17.27;41.05;102273.72;5099259;27;45400;-82
2022/04/29 03:45:57;;;;;;;;;22.67;20.00;;;;;17.33;41.35;102283.38;5099356;27;45383;-82
2022/04/29 03:48:22;;;;;;;;;23.67;17.00;;;;;17.33;41.26;102277.97;5099035;27;45388;-82
2022/04/29 03:50:48;;;;;;;;;18.67;17.67;;;;;17.32;41.24;102271.69;5098710;27;45518;-82
2022/04/29 03:53:13;;;;;;;;;25.33;21.33;;;;;17.24;41.33;102258.59;5080050;27;49747;-82
2022/04/29 03:55:38;;;;;;;;;24.33;20.67;;;;;17.31;41.07;102261.88;5099259;27;45286;-82
2022/04/29 03:58:04;;;;;;;;;25.00;20.67;;;;;16.68;41.06;102165.13;5099182;27;45259;-82
2022/04/29 04:00:32;;;;;;;;;24.00;22.33;;;;;17.28;41.37;102268.28;5098638;27;45403;-82
2022/04/29 04:03:05;;;;;;;;;23.00;21.00;;;;;17.27;41.42;102273.72;5098633;27;45664;-82
2022/04/29 04:05:30;;;;;;;;;22.00;19.00;;;;;17.07;40.94;102245.91;5099062;27;45574;-82
2022/04/29 04:07:56;;;;;;;;;21.33;20.33;;;;;16.81;41.63;102200.44;5080301;27;45615;-89
2022/04/29 04:10:21;;;;;;;;;30.67;21.00;;;;;17.02;41.58;102234.47;5098291;27;45519;-90
2022/04/29 04:12:50;;;;;;;;;20.00;18.33;;;;;17.23;41.56;102274.81;5098984;27;45500;-90
2022/04/29 04:15:17;;;;;;;;;27.33;23.00;;;;;16.79;41.42;102199.69;5098775;27;45401;-90
2022/04/29 04:17:43;;;;;;;;;25.67;20.67;;;;;17.24;41.56;102273.88;5098914;27;45363;-89
2022/04/29 04:20:11;;;;;;;;;25.33;20.67;;;;;17.22;41.87;102273.06;5098676;27;46038;-90
2022/04/29 04:22:37;;;;;;;;;21.33;17.67;;;;;16.94;41.71;102225.00;5098680;27;45218;-90
2022/04/29 04:25:04;;;;;;;;;20.00;19.00;;;;;17.19;41.42;102274.09;5098389;27;45192;-90
2022/04/29 04:27:31;;;;;;;;;21.33;19.67;;;;;17.01;41.51;102246.19;5080619;27;45318;-89
2022/04/29 04:29:57;;;;;;;;;22.33;22.33;;;;;16.26;41.61;102123.09;5079977;27;47555;-90
2022/04/29 04:32:23;;;;;;;;;19.67;18.33;;;;;17.05;41.65;102252.31;5097827;27;45436;-90
2022/04/29 04:34:51;;;;;;;;;26.00;21.67;;;;;16.87;41.28;102227.09;5098611;27;45428;-89
2022/04/29 04:37:24;;;;;;;;;22.67;21.33;;;;;16.92;41.55;102234.97;5100987;27;45305;-89
2022/04/29 04:39:49;;;;;;;;;22.00;20.00;;;;;17.12;41.56;102271.78;5100576;27;45429;-89
2022/04/29 04:42:16;;;;;;;;;28.33;19.00;;;;;17.04;41.68;102273.00;5098037;27;45334;-90
2022/04/29 04:44:42;;;;;;;;;23.67;21.33;;;;;17.07;41.97;102275.53;5098573;27;45242;-89
2022/04/29 04:47:08;;;;;;;;;21.00;19.33;;;;;16.82;42.24;102248.00;5079858;27;45501;-89
2022/04/29 04:49:34;;;;;;;;;23.67;22.67;;;;;16.63;41.84;102210.25;5097992;27;46151;-90
2022/04/29 04:51:59;;;;;;;;;26.67;23.33;;;;;17.03;41.69;102289.22;5098117;27;45515;-89
2022/04/29 04:54:25;;;;;;;;;23.00;21.00;;;;;16.68;41.83;102227.06;5098090;27;45440;-89
2022/04/29 04:56:50;;;;;;;;;21.67;20.00;;;;;16.51;42.06;102194.66;5098445;27;45491;-89
2022/04/29 04:59:16;;;;;;;;;24.33;22.00;;;;;16.76;41.54;102242.84;5079565;27;47217;-89
2022/04/29 05:01:41;;;;;;;;;27.33;21.67;;;;;16.54;41.79;102208.81;5097873;27;45990;-89
2022/04/29 05:04:07;;;;;;;;;31.33;23.00;;;;;16.78;41.83;102249.91;5079694;27;45755;-89
2022/04/29 05:06:32;;;;;;;;;24.00;21.67;;;;;16.82;41.83;102250.69;5079773;27;45471;-89
2022/04/29 05:08:58;;;;;;;;;20.00;19.00;;;;;16.18;41.46;102154.88;5079501;27;47139;-89
2022/04/29 05:11:23;;;;;;;;;18.00;17.67;;;;;16.51;41.44;102208.97;5097975;27;45394;-89
2022/04/29 05:13:49;;;;;;;;;21.00;20.33;;;;;16.77;41.72;102256.25;5097861;27;45476;-90
2022/04/29 05:16:14;;;;;;;;;28.00;22.33;;;;;16.98;41.66;102293.97;5097672;27;45498;-89
2022/04/29 05:18:39;;;;;;;;;29.33;23.67;;;;;16.99;41.94;102291.19;5096970;27;47415;-89
2022/04/29 05:21:05;;;;;;;;;19.67;19.67;;;;;16.90;41.80;102274.56;5097130;27;45502;-89
2022/04/29 05:23:30;;;;;;;;;25.67;21.67;;;;;17.00;41.93;102292.06;5098117;27;45448;-89
2022/04/29 05:25:56;;;;;;;;;22.00;21.00;;;;;17.01;41.90;102293.81;5079729;27;45344;-90
2022/04/29 05:28:21;;;;;;;;;24.00;22.00;;;;;17.01;42.00;102304.59;5097419;27;45385;-90
2022/04/29 05:30:48;;;;;;;;;20.67;19.67;;;;;16.96;42.18;102290.47;5079114;27;45412;-90
2022/04/29 05:33:14;;;;;;;;;28.00;22.67;;;;;17.04;41.99;102323.28;5097546;27;45230;-89
2022/04/29 05:35:41;;;;;;;;;22.67;19.33;;;;;17.01;41.76;102315.34;5079637;27;45715;-89
2022/04/29 05:38:06;;;;;;;;;22.00;18.67;;;;;16.85;42.09;102285.53;5079299;27;47363;-89
2022/04/29 05:43:17;;;;;;;;;22.67;19.67;;;;;16.41;42.18;102205.84;5097675;27;45409;-89
2022/04/29 05:45:42;;;;;;;;;28.33;19.33;;;;;16.63;42.08;102246.09;5097453;27;45462;-90
2022/04/29 05:48:08;;;;;;;;;35.67;31.33;;;;;16.98;41.91;102308.28;5097246;27;46375;-89
2022/04/29 05:50:33;;;;;;;;;21.33;18.00;;;;;16.83;41.84;102287.44;5099290;27;45436;-87
2022/04/29 05:52:59;;;;;;;;;33.00;25.67;;;;;16.62;42.46;102255.13;5097185;27;45398;-89
2022/04/29 05:55:24;;;;;;;;;24.00;20.67;;;;;16.33;41.98;102212.50;5097684;27;45332;-90
2022/04/29 05:57:50;;;;;;;;;22.67;19.67;;;;;17.01;42.15;102318.91;5079045;27;47232;-89
2022/04/29 06:00:15;;;;;;;;;22.67;20.67;;;;;16.36;41.85;102215.03;5097031;27;45368;-90
2022/04/29 06:02:42;;;;;;;;;23.33;19.00;;;;;16.35;41.79;102219.53;5097393;27;45372;-90
2022/04/29 06:05:08;;;;;;;;;23.67;19.33;;;;;16.51;41.93;102246.66;5097542;27;45305;-89
2022/04/29 06:07:34;;;;;;;;;26.00;23.33;;;;;16.80;41.96;102298.34;5096374;27;46031;-90
2022/04/29 06:09:59;;;;;;;;;20.00;19.00;;;;;16.86;42.08;102309.72;5097267;27;45364;-90
2022/04/29 06:12:24;;;;;;;;;24.00;19.33;;;;;16.97;41.84;102344.25;5098286;27;45668;-89
2022/04/29 06:14:50;;;;;;;;;27.67;24.67;;;;;17.06;41.93;102349.22;5097482;27;45358;-89
2022/04/29 06:17:15;;;;;;;;;19.67;17.00;;;;;16.39;41.95;102231.06;5097071;27;46193;-90
2022/04/29 06:19:41;;;;;;;;;22.00;22.00;;;;;16.88;41.66;102312.38;5078636;27;45484;-90
2022/04/29 06:22:06;;;;;;;;;26.00;20.00;;;;;17.09;42.22;102348.19;5078717;27;45458;-90
2022/04/29 06:24:33;;;;;;;;;24.00;22.33;;;;;17.05;42.00;102331.31;5097528;27;45390;-90
2022/04/29 06:26:58;;;;;;;;;25.33;21.00;;;;;16.96;42.22;102320.97;5096791;27;46174;-90
2022/04/29 06:29:24;;;;;;;;;22.00;19.33;;;;;16.63;42.16;102269.47;5096257;27;45399;-89
2022/04/29 06:31:49;;;;;;;;;30.67;23.00;;;;;16.62;42.35;102251.53;5099513;27;45345;-89
2022/04/29 06:34:14;;;;;;;;;26.33;21.00;;;;;16.83;41.71;102291.03;5082259;27;45491;-90
2022/04/29 06:36:41;;;;;;;;;23.67;22.00;;;;;16.52;41.94;102232.25;5100683;27;45440;-90
2022/04/29 06:39:06;;;;;;;;;26.00;22.00;;;;;16.70;41.70;102246.69;5082045;27;45823;-89
2022/04/29 06:41:31;;;;;;;;;25.67;21.67;;;;;17.27;41.68;102343.78;5082202;27;45538;-89
2022/04/29 06:43:57;;;;;;;;;27.67;24.33;;;;;17.09;42.41;102313.16;5082129;27;45541;-89
2022/04/29 06:46:24;;;;;;;;;106.00;95.25;;;;;17.29;42.49;102344.59;5081470;27;47322;-90
2022/04/29 06:48:50;;;;;;;;;48.50;37.50;;;;;16.09;42.34;102134.63;5100027;27;45315;-89
2022/04/29 06:51:15;;;;;;;;;54.00;44.25;;;;;17.10;42.66;102301.47;5100232;27;45378;-89
2022/04/29 06:53:41;;;;;;;;;71.75;56.50;;;;;17.10;42.71;102309.56;5078288;28;45496;-90
2022/04/29 06:56:06;;;;;;;;;36.00;32.67;;;;;17.22;42.56;102329.66;5079288;27;45303;-89
2022/04/29 06:58:32;;;;;;;;;25.67;22.00;;;;;16.72;42.22;102254.72;5079133;27;45517;-89
2022/04/29 07:00:57;;;;;;;;;50.00;40.75;;;;;16.63;42.11;102259.56;5079601;28;45406;-90
2022/04/29 07:03:23;;;;;;;;;32.33;29.33;;;;;17.24;42.15;102368.19;5079729;28;45305;-89
2022/04/29 07:05:51;;;;;;;;;55.25;42.25;;;;;16.63;42.33;102274.84;5077760;28;46876;-89
2022/04/29 07:08:17;;;;;;;;;26.67;23.67;;;;;16.49;42.46;102262.00;5079109;27;45347;-90
2022/04/29 07:10:42;;;;;;;;;24.00;20.67;;;;;17.06;42.32;102362.69;5079734;27;45514;-89
2022/04/29 07:13:09;;;;;;;;;29.67;24.33;;;;;16.63;42.60;102282.94;5077563;28;45565;-90
2022/04/29 07:15:37;;;;;;;;;29.67;25.00;;;;;17.17;42.63;102374.81;5079171;27;45503;-90
2022/04/29 07:18:02;;;;;;;;;31.67;26.33;;;;;17.17;42.52;102374.81;5077773;28;45548;-90
2022/04/29 07:20:28;;;;;;;;;24.33;23.33;;;;;17.17;42.75;102364.03;5079465;27;45456;-90
2022/04/29 07:22:53;;;;;;;;;50.75;37.50;;;;;17.26;42.91;102363.63;5079536;27;45550;-89
2022/04/29 07:25:19;;;;;;;;;36.33;33.67;;;;;17.05;42.71;102314.28;5079129;28;45384;-89
2022/04/29 07:27:45;;;;;;;;;35.33;29.33;;;;;17.28;42.94;102361.72;5078842;27;45555;-89
2022/04/29 07:30:11;;;;;;;;;45.25;35.75;;;;;17.32;42.35;102349.84;5079009;27;45338;-90
2022/04/29 07:32:37;;;;;;;;;61.50;46.25;;;;;16.92;42.85;102286.16;5079508;27;45361;-90
2022/04/29 07:43:14;;;;;;;;;28.00;26.67;;;;;16.92;42.70;102280.75;5078257;27;45530;-89
2022/04/29 07:45:42;;;;;;;;;35.67;29.33;;;;;17.23;42.27;102309.84;5078955;27;45514;-90
2022/04/29 07:48:08;;;;;;;;;32.33;30.00;;;;;17.42;43.08;102329.63;5079824;28;45334;-90
2022/04/29 07:50:35;;;;;;;;;35.33;27.33;;;;;17.32;42.80;102305.84;5078832;28;45501;-89
2022/04/29 07:53:02;;;;;;;;;30.00;28.00;;;;;17.63;42.59;102333.13;5089206;27;45259;-82
2022/04/29 07:55:27;;;;;;;;;34.00;29.00;;;;;17.92;42.45;102372.19;5098429;27;46243;-82
2022/04/29 07:57:54;;;;;;;;;35.33;29.00;;;;;17.89;42.38;102350.75;5098724;27;45310;-83
2022/04/29 08:00:19;;;;;;;;;34.00;29.00;;;;;17.85;41.98;102348.28;5080346;27;45404;-82
2022/04/29 08:02:45;;;;;;;;;31.00;27.50;;;;;17.96;41.83;102375.63;5080535;27;45365;-83
2022/04/29 08:05:11;;;;;;;;;38.33;30.33;;;;;18.01;41.99;102378.09;5098472;27;46054;-82
2022/04/29 08:07:37;;;;;;;;;45.25;37.00;;;;;17.20;42.74;102213.00;5098956;27;45519;-82
2022/04/29 08:10:03;;;;;;;;;55.50;45.75;;;;;17.93;42.38;102292.13;5098479;27;45241;-83
2022/04/29 08:12:29;;;;;;;;;47.00;37.67;;;;;18.48;42.20;102364.03;5099061;27;45346;-82
2022/04/29 08:14:54;;;;;;;;;55.50;43.50;;;;;18.80;40.99;102380.41;5098376;27;46805;-82
2022/04/29 08:17:21;;;;;;;;;37.67;33.00;;;;;18.93;40.58;102370.72;5098564;27;45490;-82
2022/04/29 08:19:48;;;;;;;;;33.00;29.67;;;;;18.93;40.79;102359.91;5098738;27;45510;-83
2022/04/29 08:22:14;;;;;;;;;51.50;40.00;;;;;18.72;40.43;102303.34;5098651;27;45491;-89
2022/04/29 08:24:39;;;;;;;;;46.67;34.67;;;;;19.29;40.60;102377.81;5079897;27;47122;-89
2022/04/29 08:27:05;;;;;;;;;33.33;29.00;;;;;19.08;40.68;102325.78;5080111;27;45381;-90
2022/04/29 08:29:30;;;;;;;;;29.00;27.00;;;;;19.18;40.09;102346.84;5080703;27;45494;-89
2022/04/29 08:31:55;;;;;;;;;33.33;31.67;;;;;19.03;39.81;102303.53;5098794;27;45358;-89
2022/04/29 08:34:22;;;;;;;;;33.67;31.00;;;;;19.16;40.35;102310.91;5098026;27;50520;-82
2022/04/29 08:36:47;;;;;;;;;38.67;31.33;;;;;19.66;40.04;102371.25;5098426;27;45363;-82
2022/04/29 08:39:12;;;;;;;;;39.67;32.33;;;;;19.58;38.92;102316.72;5097935;27;45531;-82
2022/04/29 08:41:39;;;;;;;;;63.50;49.50;;;;;19.96;39.55;102359.69;5098614;27;45385;-82
2022/04/29 08:44:08;;;;;;;;;40.33;34.00;;;;;20.37;39.26;102372.63;5098234;27;46234;-89
2022/04/29 08:46:35;;;;;;;;;45.67;34.67;;;;;20.23;38.42;102284.97;5098123;27;45352;-89
2022/04/29 08:49:02;;;;;;;;;36.67;31.67;;;;;21.15;37.78;102370.63;5098384;27;45317;-82
2022/04/29 08:51:29;;;;;;;;;33.00;30.67;;;;;20.96;37.03;102295.00;5098506;27;45334;-83
2022/04/29 08:53:54;;;;;;;;;30.00;29.00;;;;;21.56;36.96;102369.00;5097381;27;46090;-83
2022/04/29 08:59:04;;;;;;;;;34.67;30.33;;;;;21.49;36.51;102322.38;5098081;27;45501;-83
2022/04/29 09:01:30;;;;;;;;;36.67;29.00;;;;;21.43;36.72;102299.25;5098099;27;45625;-83
2022/04/29 09:03:55;;;;;;;;;39.00;32.33;;;;;21.77;36.33;102298.88;5097895;27;45483;-83
2022/04/29 09:06:22;;;;;;;;;30.00;26.33;;;;;22.44;35.80;102345.09;5097725;27;45530;-83
2022/04/29 09:08:49;;;;;;;;;25.00;22.67;;;;;22.58;35.03;102344.16;5098001;27;45412;-83
2022/04/29 09:11:27;;;;;;;;;37.33;31.00;;;;;22.49;35.42;102321.19;5079638;27;45576;-83
2022/04/29 09:13:53;;;;;;;;;36.67;31.33;;;;;22.84;34.89;102364.09;5097629;27;45432;-83
2022/04/29 09:16:19;;;;;;;;;32.33;30.67;;;;;22.69;34.73;102314.38;5097516;27;45360;-83
2022/04/29 09:18:55;;;;;;;;;26.33;24.67;;;;;22.81;34.59;102321.66;5097955;27;45394;-83
2022/04/29 09:21:26;;;;;;;;;28.33;26.67;;;;;23.24;34.14;102350.41;5098036;27;45405;-89
2022/04/29 09:23:55;;;;;;;;;30.67;28.67;;;;;23.35;33.62;102347.78;5097681;27;45491;-89
2022/04/29 09:26:21;;;;;;;;;26.67;23.67;;;;;23.44;33.79;102346.25;5079114;27;45376;-89
2022/04/29 09:28:47;;;;;;;;;23.33;23.33;;;;;23.10;34.24;102286.09;5098317;27;45538;-89
2022/04/29 09:31:14;;;;;;;;;31.00;28.00;;;;;23.51;33.91;102342.97;5097837;27;45688;-89
2022/04/29 09:33:51;;;;;;;;;29.67;24.00;;;;;23.65;33.42;102320.19;5079247;27;47605;-89
2022/04/29 09:36:24;;;;;;;;;29.00;24.33;;;;;23.94;33.34;102304.41;5097626;27;45412;-89
2022/04/29 09:41:39;;;;;;;;;30.67;25.33;;;;;24.81;31.93;102340.41;5097907;27;45385;-90
2022/04/29 09:44:04;;;;;;;;;28.00;26.00;;;;;25.10;31.89;102345.44;5097258;27;45859;-89
2022/04/29 09:46:30;;;;;;;;;25.00;22.67;;;;;25.27;31.73;102308.63;5097422;27;45274;-89
2022/04/29 09:49:00;;;;;;;;;25.67;20.00;;;;;25.78;31.00;102337.19;5079356;27;45512;-90
2022/04/29 09:51:51;;;;;;;;;24.00;23.00;;;;;26.02;30.24;102334.31;5097355;27;45333;-90
2022/04/29 09:54:22;;;;;;;;;26.33;24.67;;;;;25.98;30.13;102335.56;5096903;27;45457;-90
2022/04/29 09:57:14;;;;;;;;;29.00;23.33;;;;;25.85;30.86;102328.38;5097218;27;45300;-90
2022/04/29 09:59:47;;;;;;;;;26.67;23.67;;;;;25.88;31.21;102328.16;5097526;27;45411;-89
2022/04/29 10:02:15;;;;;;;;;25.67;23.00;;;;;25.86;30.67;102331.97;5079202;27;45443;-89
2022/04/29 10:04:43;;;;;;;;;23.00;21.67;;;;;25.76;29.66;102333.75;5097066;27;45436;-90
2022/04/29 10:07:13;;;;;;;;;25.00;22.33;;;;;25.55;30.66;102331.78;5099901;27;45321;-90
2022/04/29 10:09:44;;;;;;;;;22.67;22.67;;;;;25.44;31.17;102335.38;5100756;27;45343;-90
2022/04/29 10:12:13;;;;;;;;;23.67;22.33;;;;;25.48;30.38;102333.28;5082849;27;45356;-90
2022/04/29 10:14:40;;;;;;;;;24.00;22.67;;;;;25.28;30.42;102285.78;5082154;27;47293;-90
2022/04/29 10:22:42;;;;;;;;;23.33;23.33;;;;;25.07;30.17;102280.16;5101129;27;45380;-90
2022/04/29 10:25:10;;;;;;;;;22.00;18.00;;;;;25.58;30.52;102334.25;5100252;27;46308;-89
2022/04/29 10:27:42;;;;;;;;;25.33;23.33;;;;;25.33;29.99;102245.31;5081887;27;45520;-90
2022/04/29 10:30:09;;;;;;;;;24.00;21.67;;;;;25.84;29.20;102249.28;5100359;27;45434;-90
2022/04/29 10:33:11;;;;;;;;;24.67;23.00;;;;;26.73;28.27;102330.00;5100801;27;45436;-90
2022/04/29 10:35:39;;;;;;;;;23.33;22.00;;;;;26.82;29.45;102322.88;5099769;27;45618;-88
2022/04/29 10:38:26;;;;;;;;;22.67;20.67;;;;;26.83;29.56;102326.47;5100337;27;45364;-88
2022/04/29 10:41:06;;;;;;;;;23.33;18.67;;;;;26.87;28.34;102326.06;5082144;27;45327;-88
2022/04/29 10:43:35;;;;;;;;;25.67;23.67;;;;;26.44;27.75;102288.78;5100587;27;45442;-81
2022/04/29 10:46:03;;;;;;;;;24.00;22.67;;;;;26.44;28.72;102326.19;5099877;27;46501;-81
2022/04/29 10:48:33;;;;;;;;;26.00;22.00;;;;;26.07;28.54;102282.88;5100207;27;45413;-83
2022/04/29 10:51:27;;;;;;;;;28.67;22.33;;;;;26.32;28.52;102318.03;5099753;27;45400;-83
2022/04/29 10:53:57;;;;;;;;;27.00;22.67;;;;;26.65;29.25;102323.50;5036661;28;45539;-83
2022/04/29 10:56:31;;;;;;;;;25.00;21.67;;;;;27.06;28.14;102317.09;5031459;28;46524;-81
2022/04/29 10:59:09;;;;;;;;;22.67;22.67;;;;;27.21;27.79;102317.63;5016838;28;45417;-81
2022/04/29 11:01:36;;;;;;;;;19.33;19.33;;;;;27.32;27.63;102311.19;5016942;28;45382;-83
2022/04/29 11:04:30;;;;;;;;;22.33;19.67;;;;;27.63;27.65;102308.38;5000139;28;45331;-83
2022/04/29 11:06:55;;;;;;;;;21.00;17.67;;;;;28.32;27.61;102319.31;5016505;28;45444;-83
2022/04/29 11:09:34;;;;;;;;;22.33;18.00;;;;;29.02;25.72;102311.69;5016630;28;45375;-83
2022/04/29 11:12:00;;;;;;;;;23.67;20.00;;;;;29.37;24.71;102227.69;5016736;28;45477;-83
2022/04/29 11:14:26;;;;;;;;;21.67;19.33;;;;;30.34;24.06;102255.47;5016831;28;45335;-83
2022/04/29 11:16:52;;;;;;;;;19.33;18.67;;;;;31.19;23.67;102278.56;5015498;28;45443;-83
2022/04/29 11:19:27;;;;;;;;;19.67;18.67;;;;;31.66;22.98;102271.69;5016092;28;45393;-83
2022/04/29 11:24:51;;;;;;;;;22.33;20.00;;;;;31.48;23.08;102274.56;5016941;28;45463;-83
2022/04/29 11:27:27;;;;;;;;;30.00;22.33;;;;;31.58;23.05;102302.81;5016126;28;46134;-83
2022/04/29 11:29:53;;;;;;;;;20.67;18.67;;;;;31.47;22.81;102281.09;5023197;28;45502;-83
2022/04/29 11:32:23;;;;;;;;;15.00;12.33;;;;;31.60;22.35;102297.16;5079005;28;45361;-83
2022/04/29 11:34:54;;;;;;;;;20.33;18.00;;;;;31.06;22.13;102217.53;5078721;28;45565;-83